createdAt,value
2018-08-22T00:02:23.029Z,20.10
2018-08-22T00:04:51.968Z,20.10
2018-08-22T00:07:21.033Z,20.20
2018-08-22T00:09:49.861Z,20.20
2018-08-22T00:12:18.709Z,20.20
2018-08-22T00:14:47.815Z,20.20
2018-08-22T00:17:16.938Z,20.20
2018-08-22T00:19:45.953Z,20.20
2018-08-22T00:22:14.874Z,20.20
2018-08-22T00:24:44.140Z,20.20
2018-08-22T00:27:13.068Z,20.20
2018-08-22T00:29:41.978Z,20.10
2018-08-22T00:32:14.191Z,20.00
2018-08-22T00:34:42.965Z,20.00
2018-08-22T00:37:11.956Z,19.90
2018-08-22T00:39:41.059Z,19.90
2018-08-22T00:42:10.025Z,19.90
2018-08-22T00:44:38.870Z,19.90
2018-08-22T00:47:07.722Z,19.80
2018-08-22T00:49:36.610Z,19.80
2018-08-22T00:52:05.466Z,19.80
2018-08-22T00:54:34.507Z,19.80
2018-08-22T00:57:03.481Z,19.80
2018-08-22T00:59:32.564Z,19.80
2018-08-22T01:02:01.303Z,19.80
2018-08-22T01:04:30.160Z,19.80
2018-08-22T01:06:58.957Z,19.80
2018-08-22T01:09:27.799Z,19.80
2018-08-22T01:11:56.712Z,19.80
2018-08-22T01:14:25.529Z,19.70
2018-08-22T01:16:54.310Z,19.70
2018-08-22T01:19:23.143Z,19.70
2018-08-22T01:21:52.113Z,19.70
2018-08-22T01:24:21.300Z,19.70
2018-08-22T01:26:50.096Z,19.70
2018-08-22T01:29:18.905Z,19.80
2018-08-22T01:31:47.670Z,19.80
2018-08-22T01:34:16.595Z,19.90
2018-08-22T01:36:45.518Z,19.90
2018-08-22T01:39:14.320Z,19.90
2018-08-22T01:41:43.125Z,19.90
2018-08-22T01:44:12.531Z,19.90
2018-08-22T01:46:41.286Z,19.90
2018-08-22T01:49:10.135Z,19.90
2018-08-22T01:51:38.955Z,19.90
2018-08-22T01:54:07.760Z,19.90
2018-08-22T01:56:36.566Z,19.90
2018-08-22T01:59:05.380Z,19.90
2018-08-22T02:01:34.187Z,19.90
2018-08-22T02:04:03.439Z,19.90
2018-08-22T02:06:32.238Z,19.90
2018-08-22T02:09:01.056Z,19.80
2018-08-22T02:11:30.151Z,19.80
2018-08-22T02:13:59.012Z,19.80
2018-08-22T02:16:27.815Z,19.80
2018-08-22T02:18:56.591Z,19.70
2018-08-22T02:21:25.474Z,19.70
2018-08-22T02:23:54.382Z,19.60
2018-08-22T02:26:23.492Z,19.60
2018-08-22T02:28:52.343Z,19.60
2018-08-22T02:31:21.178Z,19.50
2018-08-22T02:33:50.017Z,19.60
2018-08-22T02:36:18.818Z,19.50
2018-08-22T02:38:47.676Z,19.50
2018-08-22T02:41:16.469Z,19.50
2018-08-22T02:43:45.299Z,19.50
2018-08-22T02:46:14.191Z,19.50
2018-08-22T02:48:49.307Z,19.50
2018-08-22T02:51:18.131Z,19.50
2018-08-22T02:53:47.007Z,19.40
2018-08-22T02:56:16.079Z,19.40
2018-08-22T02:58:44.820Z,19.40
2018-08-22T03:01:13.577Z,19.30
2018-08-22T03:03:42.467Z,19.30
2018-08-22T03:06:11.290Z,19.30
2018-08-22T03:08:40.117Z,19.30
2018-08-22T03:11:08.998Z,19.30
2018-08-22T03:13:37.926Z,19.20
2018-08-22T03:16:06.805Z,19.20
2018-08-22T03:18:35.595Z,19.20
2018-08-22T03:21:04.401Z,19.20
2018-08-22T03:23:33.249Z,19.20
2018-08-22T03:26:02.140Z,19.20
2018-08-22T03:28:30.984Z,19.20
2018-08-22T03:30:59.811Z,19.10
2018-08-22T03:33:28.590Z,19.10
2018-08-22T03:35:57.405Z,19.00
2018-08-22T03:38:26.412Z,19.00
2018-08-22T03:40:55.289Z,18.90
2018-08-22T03:43:24.080Z,18.80
2018-08-22T03:45:52.916Z,18.80
2018-08-22T03:48:21.657Z,18.80
2018-08-22T03:50:50.446Z,18.70
2018-08-22T03:53:19.256Z,18.70
2018-08-22T03:55:48.122Z,18.60
2018-08-22T03:58:16.922Z,18.60
2018-08-22T04:00:45.735Z,18.60
2018-08-22T04:03:14.519Z,18.50
2018-08-22T04:05:43.350Z,18.50
2018-08-22T04:08:12.197Z,18.50
2018-08-22T04:10:41.158Z,18.50
2018-08-22T04:13:10.074Z,18.50
2018-08-22T04:15:38.941Z,18.50
2018-08-22T04:18:07.813Z,18.50
2018-08-22T04:20:36.720Z,18.50
2018-08-22T04:23:05.541Z,18.40
2018-08-22T04:25:34.546Z,18.50
2018-08-22T04:28:03.370Z,18.50
2018-08-22T04:30:32.196Z,18.50
2018-08-22T04:33:00.957Z,18.50
2018-08-22T04:35:29.829Z,18.50
2018-08-22T04:37:58.631Z,18.50
2018-08-22T04:40:27.420Z,18.50
2018-08-22T04:42:56.188Z,18.40
2018-08-22T04:45:25.772Z,18.40
2018-08-22T04:47:54.694Z,18.40
2018-08-22T04:50:23.490Z,18.40
2018-08-22T04:52:52.213Z,18.40
2018-08-22T04:55:21.253Z,18.40
2018-08-22T04:57:50.053Z,18.40
2018-08-22T05:00:18.857Z,18.40
2018-08-22T05:02:47.816Z,18.40
2018-08-22T05:05:16.810Z,18.40
2018-08-22T05:07:46.047Z,18.40
2018-08-22T05:10:15.310Z,18.40
2018-08-22T05:12:45.089Z,18.40
2018-08-22T05:15:14.008Z,18.40
2018-08-22T05:17:42.892Z,18.40
2018-08-22T05:20:11.738Z,18.50
2018-08-22T05:22:40.525Z,18.50
2018-08-22T05:25:09.356Z,18.40
2018-08-22T05:27:38.438Z,18.50
2018-08-22T05:30:07.310Z,18.50
2018-08-22T05:32:36.160Z,18.50
2018-08-22T05:35:05.730Z,18.60
2018-08-22T05:37:34.787Z,18.60
2018-08-22T05:40:03.731Z,18.60
2018-08-22T05:42:32.650Z,18.70
2018-08-22T05:45:01.634Z,18.80
2018-08-22T05:47:30.438Z,18.80
2018-08-22T05:49:59.300Z,18.90
2018-08-22T05:52:28.177Z,18.90
2018-08-22T05:54:57.039Z,18.90
2018-08-22T05:57:25.918Z,18.90
2018-08-22T05:59:54.977Z,18.90
2018-08-22T06:02:23.908Z,19.00
2018-08-22T06:04:52.804Z,19.10
2018-08-22T06:07:21.876Z,19.10
2018-08-22T06:09:50.872Z,19.20
2018-08-22T06:12:20.109Z,19.30
2018-08-22T06:14:49.709Z,19.30
2018-08-22T06:17:19.005Z,19.30
2018-08-22T06:19:47.900Z,19.40
2018-08-22T06:22:17.107Z,19.40
2018-08-22T06:24:46.265Z,19.40
2018-08-22T06:27:15.290Z,19.50
2018-08-22T06:29:44.226Z,19.60
2018-08-22T06:32:13.283Z,19.60
2018-08-22T06:34:42.215Z,19.70
2018-08-22T06:37:11.423Z,19.70
2018-08-22T06:39:40.495Z,19.80
2018-08-22T06:42:09.463Z,19.90
2018-08-22T06:44:38.559Z,20.00
2018-08-22T06:47:07.694Z,20.00
2018-08-22T06:49:36.591Z,20.20
2018-08-22T06:52:05.712Z,20.20
2018-08-22T06:54:34.846Z,20.30
2018-08-22T06:57:03.771Z,20.40
2018-08-22T06:59:32.860Z,20.50
2018-08-22T07:02:01.996Z,20.60
2018-08-22T07:04:31.339Z,20.70
2018-08-22T07:07:00.393Z,20.80
2018-08-22T07:09:29.633Z,20.90
2018-08-22T07:11:58.514Z,20.90
2018-08-22T07:14:27.547Z,21.10
2018-08-22T07:16:56.547Z,21.20
2018-08-22T07:19:25.521Z,21.30
2018-08-22T07:21:54.529Z,21.30
2018-08-22T07:24:23.654Z,21.40
2018-08-22T07:26:52.675Z,21.40
2018-08-22T07:29:21.706Z,21.40
2018-08-22T07:31:51.492Z,21.40
2018-08-22T07:34:20.558Z,21.60
2018-08-22T07:36:49.551Z,21.60
2018-08-22T07:39:18.638Z,21.70
2018-08-22T07:41:47.631Z,21.80
2018-08-22T07:44:16.640Z,21.90
2018-08-22T07:46:45.651Z,22.10
2018-08-22T07:49:14.720Z,22.10
2018-08-22T07:51:43.615Z,22.20
2018-08-22T07:54:12.514Z,22.40
2018-08-22T07:56:41.423Z,22.40
2018-08-22T07:59:14.564Z,22.60
2018-08-22T08:01:43.947Z,22.60
2018-08-22T08:04:14.127Z,22.70
2018-08-22T08:06:43.393Z,22.80
2018-08-22T08:09:14.643Z,22.90
2018-08-22T08:11:43.769Z,23.00
2018-08-22T08:14:13.378Z,23.00
2018-08-22T08:16:42.552Z,23.10
2018-08-22T08:19:11.462Z,23.20
2018-08-22T08:21:40.685Z,23.30
2018-08-22T08:24:09.639Z,23.40
2018-08-22T08:26:38.612Z,23.50
2018-08-22T08:29:07.731Z,23.60
2018-08-22T08:31:37.066Z,23.60
2018-08-22T08:34:06.410Z,23.70
2018-08-22T08:36:35.396Z,23.80
2018-08-22T08:39:07.029Z,24.00
2018-08-22T08:41:36.453Z,24.10
2018-08-22T08:44:05.664Z,24.20
2018-08-22T08:46:34.661Z,24.30
2018-08-22T08:49:03.797Z,24.40
2018-08-22T08:51:32.816Z,24.50
2018-08-22T08:54:01.937Z,24.50
2018-08-22T08:56:31.646Z,24.40
2018-08-22T08:59:00.922Z,24.50
2018-08-22T09:01:30.097Z,24.70
2018-08-22T09:03:59.167Z,24.80
2018-08-22T09:06:27.949Z,24.80
2018-08-22T09:08:56.887Z,24.80
2018-08-22T09:11:25.843Z,24.90
2018-08-22T09:13:57.015Z,24.90
2018-08-22T09:16:25.963Z,25.00
2018-08-22T09:18:55.431Z,25.20
2018-08-22T09:21:24.502Z,25.30
2018-08-22T09:23:53.645Z,25.30
2018-08-22T09:26:22.619Z,25.40
2018-08-22T09:28:52.054Z,25.70
2018-08-22T09:31:21.265Z,25.80
2018-08-22T09:33:51.246Z,25.90
2018-08-22T09:36:20.135Z,26.10
2018-08-22T09:38:49.208Z,26.30
2018-08-22T09:41:24.656Z,26.60
2018-08-22T09:43:53.589Z,27.00
2018-08-22T09:46:22.730Z,27.10
2018-08-22T09:48:52.128Z,27.30
2018-08-22T09:51:21.298Z,27.90
2018-08-22T09:53:50.549Z,27.90
2018-08-22T09:56:19.748Z,27.80
2018-08-22T09:58:49.098Z,27.90
2018-08-22T10:01:28.581Z,27.90
2018-08-22T10:04:01.835Z,27.90
2018-08-22T10:06:34.325Z,28.20
2018-08-22T10:09:05.228Z,28.80
2018-08-22T10:11:34.119Z,29.10
2018-08-22T10:14:03.111Z,29.10
2018-08-22T10:16:32.217Z,28.80
2018-08-22T10:19:01.373Z,28.90
2018-08-22T10:21:30.465Z,29.10
2018-08-22T10:24:06.235Z,29.40
2018-08-22T10:26:35.440Z,29.90
2018-08-22T10:29:04.459Z,30.50
2018-08-22T10:31:33.535Z,30.70
2018-08-22T10:34:02.580Z,30.90
2018-08-22T10:36:31.690Z,31.40
2018-08-22T10:39:00.930Z,31.60
2018-08-22T10:41:30.179Z,31.60
2018-08-22T10:43:59.904Z,31.70
2018-08-22T10:46:29.208Z,32.20
2018-08-22T10:48:58.187Z,32.40
2018-08-22T10:51:27.312Z,32.70
2018-08-22T10:53:56.547Z,33.20
2018-08-22T10:56:26.146Z,33.20
2018-08-22T10:58:55.278Z,33.20
2018-08-22T11:01:24.479Z,33.50
2018-08-22T11:03:53.464Z,33.60
2018-08-22T11:06:22.575Z,33.40
2018-08-22T11:08:51.608Z,33.60
2018-08-22T11:11:20.550Z,33.80
2018-08-22T11:13:49.650Z,34.00
2018-08-22T11:16:18.779Z,34.20
2018-08-22T11:18:47.806Z,34.20
2018-08-22T11:21:27.855Z,34.00
2018-08-22T11:24:07.859Z,34.10
2018-08-22T11:26:47.929Z,34.40
2018-08-22T11:29:28.120Z,34.60
2018-08-22T11:32:08.261Z,35.40
2018-08-22T11:34:49.606Z,36.10
2018-08-22T11:37:19.045Z,36.30
2018-08-22T11:39:49.477Z,36.40
2018-08-22T11:42:18.492Z,36.70
2018-08-22T11:44:47.299Z,36.80
2018-08-22T11:47:16.090Z,36.70
2018-08-22T11:49:44.845Z,36.40
2018-08-22T11:52:20.303Z,36.10
2018-08-22T11:54:49.290Z,36.30
2018-08-22T11:57:18.044Z,36.80
2018-08-22T11:59:46.970Z,36.90
2018-08-22T12:02:15.727Z,36.70
2018-08-22T12:04:44.467Z,36.70
2018-08-22T12:07:13.290Z,37.20
2018-08-22T12:09:42.043Z,37.30
2018-08-22T12:12:11.270Z,37.60
2018-08-22T12:14:40.036Z,37.80
2018-08-22T12:17:08.773Z,37.90
2018-08-22T12:19:37.747Z,37.60
2018-08-22T12:22:06.721Z,37.50
2018-08-22T12:24:35.480Z,37.70
2018-08-22T12:27:04.297Z,37.90
2018-08-22T12:29:33.108Z,38.30
2018-08-22T12:32:02.222Z,38.00
2018-08-22T12:34:31.273Z,37.70
2018-08-22T12:37:00.443Z,37.10
2018-08-22T12:39:29.538Z,36.80
2018-08-22T12:41:58.856Z,37.10
2018-08-22T12:44:28.006Z,37.70
2018-08-22T12:46:56.982Z,38.20
2018-08-22T12:49:25.888Z,38.60
2018-08-22T12:51:54.550Z,39.10
2018-08-22T12:54:23.309Z,39.60
2018-08-22T12:56:52.210Z,39.80
2018-08-22T12:59:21.378Z,40.00
2018-08-22T13:01:50.799Z,39.80
2018-08-22T13:04:20.124Z,40.10
2018-08-22T13:06:49.469Z,39.90
2018-08-22T13:09:18.371Z,38.90
2018-08-22T13:11:47.531Z,38.90
2018-08-22T13:14:16.954Z,39.30
2018-08-22T13:16:46.111Z,39.30
2018-08-22T13:19:15.137Z,39.90
2018-08-22T13:21:44.196Z,40.20
2018-08-22T13:24:13.236Z,40.40
2018-08-22T13:26:42.064Z,40.50
2018-08-22T13:29:11.208Z,40.50
2018-08-22T13:31:40.268Z,40.70
2018-08-22T13:34:09.412Z,40.60
2018-08-22T13:36:38.828Z,40.70
2018-08-22T13:39:09.755Z,41.10
2018-08-22T13:41:38.761Z,40.30
2018-08-22T13:44:07.859Z,40.60
2018-08-22T13:46:36.802Z,40.60
2018-08-22T13:49:06.096Z,40.20
2018-08-22T13:51:35.458Z,39.90
2018-08-22T13:54:04.763Z,40.50
2018-08-22T13:56:33.719Z,40.70
2018-08-22T13:59:03.015Z,40.90
2018-08-22T14:01:32.102Z,40.20
2018-08-22T14:04:01.424Z,40.40
2018-08-22T14:06:30.428Z,40.30
2018-08-22T14:08:59.691Z,40.50
2018-08-22T14:11:28.840Z,40.20
2018-08-22T14:13:57.750Z,40.00
2018-08-22T14:16:26.947Z,39.90
2018-08-22T14:18:56.260Z,40.10
2018-08-22T14:21:25.404Z,40.10
2018-08-22T14:23:54.253Z,40.20
2018-08-22T14:26:23.336Z,40.70
2018-08-22T14:28:52.506Z,41.40
2018-08-22T14:31:21.449Z,41.30
2018-08-22T14:33:52.497Z,41.60
2018-08-22T14:36:23.541Z,41.70
2018-08-22T14:38:52.839Z,42.50
2018-08-22T14:41:22.199Z,41.80
2018-08-22T14:43:52.020Z,40.70
2018-08-22T14:46:21.031Z,40.50
2018-08-22T14:48:49.941Z,40.50
2018-08-22T14:51:19.000Z,40.70
2018-08-22T14:53:47.978Z,41.40
2018-08-22T14:56:17.058Z,42.30
2018-08-22T14:58:46.062Z,41.90
2018-08-22T15:01:14.936Z,41.90
2018-08-22T15:03:44.449Z,41.50
2018-08-22T15:06:13.519Z,41.50
2018-08-22T15:08:42.628Z,41.90
2018-08-22T15:11:11.880Z,41.50
2018-08-22T15:13:40.885Z,41.10
2018-08-22T15:16:10.006Z,41.20
2018-08-22T15:18:38.994Z,41.60
2018-08-22T15:21:08.089Z,42.00
2018-08-22T15:23:36.978Z,42.00
2018-08-22T15:26:06.241Z,41.70
2018-08-22T15:28:36.526Z,41.70
2018-08-22T15:31:05.423Z,41.20
2018-08-22T15:33:36.194Z,40.10
2018-08-22T15:36:06.232Z,40.50
2018-08-22T15:38:36.658Z,40.70
2018-08-22T15:41:07.604Z,40.80
2018-08-22T15:43:38.295Z,40.90
2018-08-22T15:46:08.609Z,41.00
2018-08-22T15:48:38.967Z,41.10
2018-08-22T15:51:09.934Z,39.90
2018-08-22T15:53:39.956Z,39.80
2018-08-22T15:56:09.970Z,39.30
2018-08-22T15:58:41.254Z,38.70
2018-08-22T16:01:12.517Z,38.90
2018-08-22T16:03:42.412Z,39.20
2018-08-22T16:06:12.403Z,39.70
2018-08-22T16:08:41.749Z,39.40
2018-08-22T16:11:10.589Z,39.80
2018-08-22T16:13:39.446Z,39.30
2018-08-22T16:16:08.302Z,39.30
2018-08-22T16:18:37.167Z,38.90
2018-08-22T16:21:07.322Z,38.30
2018-08-22T16:23:36.533Z,38.10
2018-08-22T16:26:06.246Z,38.20
2018-08-22T16:28:48.888Z,37.80
2018-08-22T16:31:17.962Z,37.90
2018-08-22T16:33:46.777Z,37.80
2018-08-22T16:36:20.593Z,37.60
2018-08-22T16:38:49.576Z,37.50
2018-08-22T16:41:18.626Z,36.80
2018-08-22T16:43:49.577Z,36.10
2018-08-22T16:46:18.538Z,35.10
2018-08-22T16:48:52.387Z,33.90
2018-08-22T16:51:23.164Z,33.10
2018-08-22T16:54:02.047Z,32.60
2018-08-22T16:56:32.472Z,32.10
2018-08-22T16:59:10.978Z,31.60
2018-08-22T17:01:49.670Z,31.00
2018-08-22T17:04:18.601Z,30.70
2018-08-22T17:06:48.165Z,30.70
2018-08-22T17:09:17.239Z,30.60
2018-08-22T17:11:47.013Z,30.60
2018-08-22T17:14:15.881Z,30.60
2018-08-22T17:16:44.752Z,30.60
2018-08-22T17:19:13.558Z,30.40
2018-08-22T17:21:43.269Z,30.30
2018-08-22T17:24:12.095Z,30.10
2018-08-22T17:26:40.972Z,30.10
2018-08-22T17:29:09.756Z,30.10
2018-08-22T17:31:38.627Z,30.00
2018-08-22T17:34:07.516Z,29.90
2018-08-22T17:36:36.883Z,29.70
2018-08-22T17:39:07.089Z,29.60
2018-08-22T17:41:36.120Z,29.50
2018-08-22T17:44:14.006Z,29.40
2018-08-22T17:46:44.268Z,29.40
2018-08-22T17:49:13.310Z,29.10
2018-08-22T17:52:05.280Z,29.10
2018-08-22T17:54:34.399Z,28.90
2018-08-22T17:57:16.002Z,28.70
2018-08-22T17:59:45.333Z,28.70
2018-08-22T18:02:14.444Z,28.60
2018-08-22T18:04:53.671Z,28.50
2018-08-22T18:07:22.673Z,28.40
2018-08-22T18:09:52.000Z,28.40
2018-08-22T18:12:24.766Z,28.20
2018-08-22T18:14:53.772Z,28.20
2018-08-22T18:17:22.721Z,28.10
2018-08-22T18:19:52.643Z,28.00
2018-08-22T18:22:21.515Z,27.90
2018-08-22T18:24:55.726Z,27.90
2018-08-22T18:27:25.292Z,27.80
2018-08-22T18:29:54.144Z,27.70
2018-08-22T18:32:23.049Z,27.60
2018-08-22T18:35:12.606Z,27.60
2018-08-22T18:37:42.275Z,27.50
2018-08-22T18:40:27.177Z,27.40
2018-08-22T18:42:57.425Z,27.30
2018-08-22T18:45:26.880Z,27.20
2018-08-22T18:47:55.959Z,27.20
2018-08-22T18:50:24.981Z,27.10
2018-08-22T18:52:58.195Z,27.00
2018-08-22T18:55:35.142Z,26.90
2018-08-22T18:58:05.431Z,26.90
2018-08-22T19:00:36.226Z,26.80
2018-08-22T19:03:05.272Z,26.70
2018-08-22T19:05:35.645Z,26.70
2018-08-22T19:08:07.313Z,26.60
2018-08-22T19:10:37.325Z,26.60
2018-08-22T19:13:11.073Z,26.50
2018-08-22T19:15:39.896Z,26.50
2018-08-22T19:18:10.027Z,26.40
2018-08-22T19:20:39.223Z,26.40
2018-08-22T19:23:08.236Z,26.30
2018-08-22T19:25:37.166Z,26.20
2018-08-22T19:28:06.088Z,26.20
2018-08-22T19:30:35.917Z,26.10
2018-08-22T19:33:05.844Z,26.10
2018-08-22T19:35:35.808Z,26.00
2018-08-22T19:38:06.570Z,25.90
2018-08-22T19:40:37.437Z,25.90
2018-08-22T19:43:06.872Z,25.80
2018-08-22T19:45:36.691Z,25.70
2018-08-22T19:48:05.899Z,25.70
2018-08-22T19:50:35.115Z,25.60
2018-08-22T19:53:04.777Z,25.60
2018-08-22T19:55:35.228Z,25.50
2018-08-22T19:58:05.390Z,25.50
2018-08-22T20:00:34.410Z,25.50
2018-08-22T20:03:03.367Z,25.40
2018-08-22T20:05:55.713Z,25.30
2018-08-22T20:08:29.670Z,25.30
2018-08-22T20:10:59.069Z,25.20
2018-08-22T20:13:38.526Z,25.20
2018-08-22T20:16:07.390Z,25.10
2018-08-22T20:18:36.240Z,25.10
2018-08-22T20:21:05.373Z,25.00
2018-08-22T20:23:34.305Z,24.90
2018-08-22T20:26:03.125Z,24.90
2018-08-22T20:28:32.336Z,24.90
2018-08-22T20:31:06.614Z,24.80
2018-08-22T20:33:35.456Z,24.70
2018-08-22T20:36:04.535Z,24.70
2018-08-22T20:38:33.429Z,24.70
2018-08-22T20:41:08.740Z,24.60
2018-08-22T20:43:37.861Z,24.60
2018-08-22T20:46:06.949Z,24.50
2018-08-22T20:48:35.786Z,24.50
2018-08-22T20:51:04.926Z,24.40
2018-08-22T20:53:33.815Z,24.40
2018-08-22T20:56:02.611Z,24.40
2018-08-22T20:58:31.571Z,24.30
2018-08-22T21:01:01.062Z,24.30
2018-08-22T21:03:30.360Z,24.20
2018-08-22T21:05:59.257Z,24.20
2018-08-22T21:08:28.101Z,24.10
2018-08-22T21:10:56.943Z,24.10
2018-08-22T21:13:27.717Z,24.10
2018-08-22T21:15:56.948Z,24.00
2018-08-22T21:18:26.026Z,24.00
2018-08-22T21:20:55.210Z,24.00
2018-08-22T21:23:24.066Z,24.00
2018-08-22T21:25:52.906Z,23.90
2018-08-22T21:28:26.685Z,23.90
2018-08-22T21:30:59.051Z,23.90
2018-08-22T21:33:28.818Z,23.80
2018-08-22T21:35:58.529Z,23.80
2018-08-22T21:38:29.144Z,23.80
2018-08-22T21:40:58.831Z,23.70
2018-08-22T21:43:27.800Z,23.70
2018-08-22T21:45:56.676Z,23.70
2018-08-22T21:48:26.578Z,23.70
2018-08-22T21:50:55.466Z,23.70
2018-08-22T21:53:24.478Z,23.60
2018-08-22T21:55:53.854Z,23.60
2018-08-22T21:58:22.918Z,23.50
2018-08-22T22:00:52.004Z,23.60
2018-08-22T22:03:26.833Z,23.60
2018-08-22T22:06:02.774Z,23.50
2018-08-22T22:08:31.611Z,23.50
2018-08-22T22:11:04.609Z,23.50
2018-08-22T22:13:33.508Z,23.40
2018-08-22T22:16:04.168Z,23.40
2018-08-22T22:18:34.333Z,23.30
2018-08-22T22:21:13.957Z,23.30
2018-08-22T22:23:49.725Z,23.30
2018-08-22T22:26:19.847Z,23.20
2018-08-22T22:28:49.548Z,23.20
2018-08-22T22:31:18.800Z,23.10
2018-08-22T22:34:07.693Z,23.10
2018-08-22T22:36:37.046Z,23.00
2018-08-22T22:39:12.880Z,22.90
2018-08-22T22:41:41.783Z,22.90
2018-08-22T22:44:10.612Z,22.80
2018-08-22T22:46:39.456Z,22.80
2018-08-22T22:49:08.304Z,22.70
2018-08-22T22:51:37.187Z,22.60
2018-08-22T22:54:06.097Z,22.60
2018-08-22T22:56:35.217Z,22.50
2018-08-22T22:59:04.222Z,22.50
2018-08-22T23:01:33.045Z,22.50
2018-08-22T23:04:01.939Z,22.40
2018-08-22T23:06:32.912Z,22.40
2018-08-22T23:09:01.752Z,22.40
2018-08-22T23:11:30.708Z,22.30
2018-08-22T23:13:59.535Z,22.30
2018-08-22T23:16:33.668Z,22.20
2018-08-22T23:19:02.479Z,22.20
2018-08-22T23:21:31.453Z,22.10
2018-08-22T23:24:01.293Z,22.10
2018-08-22T23:26:30.158Z,22.00
2018-08-22T23:28:59.136Z,22.00
2018-08-22T23:31:28.079Z,22.00
2018-08-22T23:33:56.947Z,21.90
2018-08-22T23:36:26.005Z,21.90
2018-08-22T23:38:54.836Z,21.90
2018-08-22T23:41:23.697Z,21.80
2018-08-22T23:43:53.068Z,21.80
2018-08-22T23:46:21.892Z,21.80
2018-08-22T23:48:55.619Z,21.70
2018-08-22T23:51:24.492Z,21.70
2018-08-22T23:53:57.019Z,21.70
2018-08-22T23:56:27.088Z,21.60
2018-08-22T23:58:56.615Z,21.60
